Time;durP1;ratioP1;P1;durP2;ratioP2;P2;SDS_P1;SDS_P2;PMS_P1;PMS_P2;Temp;Humidity;BMP_temperature;BMP_pressure;BME280_temperature;BME280_humidity;BME280_pressure;Samples;Min_cycle;Max_cycle;Signal;HPM_P1;HPM_P2
2021/05/18 00:02:18;;;;;;;11.28;10.28;;;;;;;14.51;100.00;98487.30;1648336;85;21103;-78
2021/05/18 00:04:44;;;;;;;9.75;8.85;;;;;;;14.51;100.00;98485.95;1683390;85;20954;-77
2021/05/18 00:07:15;;;;;;;10.88;9.98;;;;;;;14.47;100.00;98482.26;1649467;86;21037;-76
2021/05/18 00:12:23;;;;;;;8.20;7.55;;;;;;;14.46;100.00;98476.05;1682181;85;21593;-73
2021/05/18 00:14:50;;;;;;;10.50;9.50;;;;;;;14.49;100.00;98469.20;1658143;85;21130;-74
2021/05/18 00:17:17;;;;;;;13.10;10.15;;;;;;;14.45;100.00;98470.38;1655135;85;20978;-77
2021/05/18 00:19:43;;;;;;;9.83;8.95;;;;;;;14.37;100.00;98473.81;1670385;85;21565;-69
2021/05/18 00:22:09;;;;;;;9.23;8.43;;;;;;;14.30;100.00;98476.09;1678536;85;21586;-72
2021/05/18 00:24:37;;;;;;;11.38;10.38;;;;;;;14.21;100.00;98477.36;1636246;86;21042;-85
2021/05/18 00:27:04;;;;;;;11.55;10.48;;;;;;;14.21;100.00;98477.36;1676306;85;20983;-74
2021/05/18 00:29:32;;;;;;;11.83;10.50;;;;;;;14.26;100.00;98470.49;1648018;86;21638;-72
2021/05/18 00:31:58;;;;;;;13.08;10.53;;;;;;;14.26;100.00;98470.49;1675638;84;21016;-73
2021/05/18 00:34:25;;;;;;;11.65;10.55;;;;;;;14.27;100.00;98461.28;1675194;85;21065;-73
2021/05/18 00:36:51;;;;;;;10.90;9.90;;;;;;;14.27;100.00;98467.24;1694532;84;20984;-74
2021/05/18 00:39:18;;;;;;;10.60;9.45;;;;;;;14.28;100.00;98465.59;1694981;84;21014;-72
2021/05/18 00:41:46;;;;;;;7.95;7.25;;;;;;;14.28;100.00;98463.44;1686370;84;20987;-75
2021/05/18 00:44:12;;;;;;;9.68;8.78;;;;;;;14.22;100.00;98458.69;1704488;84;21077;-70
2021/05/18 00:46:39;;;;;;;10.98;9.98;;;;;;;14.15;100.00;98462.92;1690506;84;21001;-71
2021/05/18 00:49:06;;;;;;;11.22;10.20;;;;;;;14.08;100.00;98462.52;1651065;84;21532;-73
2021/05/18 00:51:34;;;;;;;9.65;8.80;;;;;;;14.08;100.00;98459.81;1656734;86;21096;-70
2021/05/18 00:54:05;;;;;;;10.88;9.88;;;;;;;14.13;100.00;98461.05;1676700;84;21071;-73
2021/05/18 00:59:04;;;;;;;12.35;11.03;;;;;;;14.08;100.00;98449.80;1705973;84;21097;-74
2021/05/18 01:01:31;;;;;;;11.53;10.53;;;;;;;14.07;100.00;98448.19;1683191;84;21042;-83
2021/05/18 01:03:59;;;;;;;11.75;10.75;;;;;;;14.10;100.00;98443.52;1699306;84;20959;-73
2021/05/18 01:09:12;;;;;;;11.70;10.72;;;;;;;14.12;100.00;98437.27;1681606;84;20978;-71
2021/05/18 01:11:43;;;;;;;11.55;10.48;;;;;;;14.20;100.00;98436.55;1695852;84;21310;-70
2021/05/18 01:14:16;;;;;;;9.73;8.83;;;;;;;14.29;100.00;98433.36;1658081;84;21058;-70
2021/05/18 01:16:47;;;;;;;11.48;10.48;;;;;;;14.25;100.00;98431.02;1690721;84;20939;-69
2021/05/18 01:19:16;;;;;;;12.78;11.57;;;;;;;14.20;100.00;98427.08;1681220;84;21038;-70
2021/05/18 01:21:43;;;;;;;10.40;9.43;;;;;;;14.16;100.00;98427.99;1704242;84;21033;-69
2021/05/18 01:24:11;;;;;;;14.53;13.05;;;;;;;14.13;100.00;98419.95;1683231;84;21352;-70
2021/05/18 01:26:38;;;;;;;12.07;11.00;;;;;;;14.19;100.00;98426.05;1701597;84;21625;-74
2021/05/18 01:29:08;;;;;;;11.60;10.50;;;;;;;14.22;100.00;98430.84;1680633;84;20958;-69
2021/05/18 01:31:37;;;;;;;13.55;12.25;;;;;;;14.18;100.00;98427.95;1667576;84;21027;-70
2021/05/18 01:34:04;;;;;;;11.97;10.80;;;;;;;14.11;100.00;98429.45;1695293;84;20955;-68
2021/05/18 01:36:33;;;;;;;10.85;9.85;;;;;;;14.09;100.00;98434.38;1680270;84;21093;-69
2021/05/18 01:44:25;;;;;;;13.13;11.90;;;;;;;14.03;100.00;98424.77;1699331;82;21006;-70
2021/05/18 01:46:53;;;;;;;13.53;12.23;;;;;;;14.04;100.00;98418.27;1700148;83;21006;-69
2021/05/18 01:49:21;;;;;;;11.43;10.32;;;;;;;14.00;100.00;98421.33;1659294;86;21152;-69
2021/05/18 01:51:52;;;;;;;14.68;13.20;;;;;;;13.99;100.00;98417.83;1655860;86;21065;-70
2021/05/18 01:54:25;;;;;;;12.70;11.35;;;;;;;13.98;100.00;98420.27;1664865;86;20934;-69
2021/05/18 01:59:29;;;;;;;13.05;11.68;;;;;;;14.00;100.00;98415.92;1704057;83;21081;-69
2021/05/18 02:02:02;;;;;;;12.47;11.30;;;;;;;14.00;100.00;98417.28;1706794;83;21147;-70
2021/05/18 02:04:53;;;;;;;15.08;13.55;;;;;;;13.97;100.00;98421.38;1636157;86;21622;-71
2021/05/18 02:07:28;;;;;;;14.23;12.82;;;;;;;13.94;100.00;98429.55;1641843;86;21133;-71
2021/05/18 02:09:55;;;;;;;15.00;11.48;;;;;;;13.96;100.00;98427.33;1692768;83;21098;-70
2021/05/18 02:12:22;;;;;;;17.07;11.85;;;;;;;14.07;100.00;98424.41;1696384;83;21018;-69
2021/05/18 02:15:04;;;;;;;12.80;11.15;;;;;;;14.13;100.00;98418.59;1686508;84;20968;-71
2021/05/18 02:17:31;;;;;;;14.30;11.83;;;;;;;14.15;100.00;98423.71;1654720;84;20996;-71
2021/05/18 02:20:11;;;;;;;18.35;13.60;;;;;;;14.10;100.00;98415.71;1684219;84;20944;-69
2021/05/18 02:25:21;;;;;;;22.85;13.75;;;;;;;13.80;100.00;98413.90;1678567;84;21558;-70
2021/05/18 02:27:51;;;;;;;16.40;14.10;;;;;;;13.61;100.00;98413.21;1647253;85;22317;-70
2021/05/18 02:30:19;;;;;;;16.62;14.00;;;;;;;13.50;100.00;98408.55;1682311;84;21044;-70
2021/05/18 02:32:46;;;;;;;12.78;11.57;;;;;;;13.48;100.00;98407.23;1675586;84;20969;-70
2021/05/18 02:35:22;;;;;;;16.20;11.97;;;;;;;13.44;100.00;98410.29;1689563;84;21049;-71
2021/05/18 02:37:48;;;;;;;12.33;11.22;;;;;;;13.40;100.00;98416.04;1680456;84;20933;-69
2021/05/18 02:40:23;;;;;;;12.15;10.95;;;;;;;13.29;100.00;98420.02;1679326;84;21044;-69
2021/05/18 02:42:51;;;;;;;19.20;12.65;;;;;;;13.23;100.00;98432.84;1679059;84;21044;-69
2021/05/18 02:50:43;;;;;;;12.68;11.55;;;;;;;13.45;100.00;98428.91;1652601;84;21156;-70
2021/05/18 02:53:10;;;;;;;12.60;11.15;;;;;;;13.41;100.00;98430.61;1682354;84;21050;-70
2021/05/18 02:55:54;;;;;;;11.00;9.85;;;;;;;13.48;100.00;98423.44;1664205;84;21072;-69
2021/05/18 02:58:13;;;;;;;16.35;10.90;;;;;;;13.53;100.00;98428.74;1687636;83;20990;-70
2021/05/18 03:00:40;;;;;;;9.88;8.10;;;;;;;13.50;100.00;98430.16;1684389;84;21078;-69
2021/05/18 03:03:06;;;;;;;18.55;10.30;;;;;;;13.51;100.00;98434.47;1689070;84;20978;-69
2021/05/18 03:05:33;;;;;;;9.93;8.93;;;;;;;13.47;100.00;98426.72;1674585;83;21061;-69
2021/05/18 03:08:01;;;;;;;11.05;9.73;;;;;;;13.43;100.00;98428.39;1704324;83;21626;-69
2021/05/18 03:10:28;;;;;;;12.88;10.72;;;;;;;13.38;100.00;98427.13;1703504;83;20946;-72
2021/05/18 03:12:54;;;;;;;9.23;8.33;;;;;;;13.35;100.00;98432.34;1687731;83;22646;-71
2021/05/18 03:15:21;;;;;;;10.25;9.25;;;;;;;13.36;100.00;98436.64;1650430;86;21666;-70
2021/05/18 03:17:49;;;;;;;9.60;8.05;;;;;;;13.37;100.00;98427.45;1680424;84;20980;-70
2021/05/18 03:20:17;;;;;;;10.28;9.20;;;;;;;13.39;100.00;98419.29;1640857;86;21035;-70
2021/05/18 03:22:45;;;;;;;12.75;10.40;;;;;;;13.38;100.00;98423.66;1665663;84;21004;-71
2021/05/18 03:25:13;;;;;;;13.85;10.72;;;;;;;13.38;100.00;98431.19;1678509;84;21124;-68
2021/05/18 03:27:41;;;;;;;10.50;9.60;;;;;;;13.37;100.00;98437.71;1682992;84;21549;-68
2021/05/18 03:35:41;;;;;;;14.18;10.82;;;;;;;13.41;100.00;98440.06;1675176;84;21616;-73
2021/05/18 03:40:43;;;;;;;11.05;9.75;;;;;;;13.30;100.00;98444.58;1656122;85;20992;-70
2021/05/18 04:04:53;;;;;;;19.52;12.25;;;;;;;13.76;100.00;98462.09;1647518;87;21100;-68
2021/05/18 04:12:52;;;;;;;13.25;11.03;;;;;;;13.91;100.00;98457.71;1676372;85;20986;-69
2021/05/18 04:18:17;;;;;;;13.28;11.25;;;;;;;13.87;100.00;98477.78;1622322;88;21093;-69
2021/05/18 04:20:52;;;;;;;11.40;10.20;;;;;;;13.86;100.00;98476.19;1621783;87;21169;-71
2021/05/18 04:23:23;;;;;;;10.13;9.08;;;;;;;13.94;100.00;98463.88;1622725;87;21116;-67
2021/05/18 04:53:18;;;;;;;16.45;10.45;;;;;;;13.85;100.00;98467.05;1709737;83;21061;-69
2021/05/18 05:01:56;;;;;;;22.42;11.25;;;;;;;14.21;100.00;98458.98;1710431;83;20953;-71
2021/05/18 05:14:41;;;;;;;16.25;11.75;;;;;;;14.37;100.00;98451.63;1707491;83;21035;-72
2021/05/18 05:17:08;;;;;;;17.62;12.37;;;;;;;14.42;100.00;98441.80;1669767;84;21104;-70
2021/05/18 05:19:35;;;;;;;15.30;12.70;;;;;;;14.43;100.00;98443.40;1706512;83;21557;-70
2021/05/18 05:22:03;;;;;;;12.95;10.63;;;;;;;14.48;100.00;98440.58;1689898;84;21021;-69
2021/05/18 05:24:29;;;;;;;17.57;12.95;;;;;;;14.49;100.00;98445.66;1690143;84;21069;-71
2021/05/18 05:26:56;;;;;;;17.05;13.93;;;;;;;14.55;100.00;98443.09;1690008;84;21090;-68
2021/05/18 05:29:22;;;;;;;20.45;16.32;;;;;;;14.65;100.00;98446.92;1708823;83;21067;-69
2021/05/18 05:31:50;;;;;;;15.58;13.95;;;;;;;14.77;100.00;98455.28;1695972;83;20973;-69
2021/05/18 05:34:18;;;;;;;23.83;13.45;;;;;;;14.84;100.00;98461.08;1718944;83;21029;-68
2021/05/18 05:36:46;;;;;;;21.75;13.98;;;;;;;14.90;100.00;98462.31;1690836;84;21582;-69
2021/05/18 05:39:21;;;;;;;25.10;13.13;;;;;;;14.97;100.00;98459.95;1692454;84;21610;-70
2021/05/18 05:41:42;;;;;;;15.43;9.58;;;;;;;15.00;100.00;98465.58;1678709;85;21167;-70
2021/05/18 05:44:09;;;;;;;21.48;11.28;;;;;;;15.10;100.00;98467.23;1638177;86;21601;-71
2021/05/18 05:46:35;;;;;;;16.82;11.97;;;;;;;15.16;100.00;98468.68;1660898;84;21604;-68
2021/05/18 05:49:04;;;;;;;24.30;13.53;;;;;;;15.20;100.00;98466.98;1662733;84;21021;-67
2021/05/18 05:51:31;;;;;;;13.43;11.28;;;;;;;15.24;100.00;98469.31;1636904;86;21549;-70
2021/05/18 05:54:01;;;;;;;15.45;12.43;;;;;;;15.26;100.00;98469.23;1635010;87;21166;-68
2021/05/18 05:56:28;;;;;;;24.92;19.92;;;;;;;15.25;99.87;98468.20;1613554;86;21025;-69
2021/05/18 05:58:58;;;;;;;19.73;14.55;;;;;;;15.24;99.79;98460.63;1681991;84;21066;-69
2021/05/18 06:01:24;;;;;;;14.18;10.95;;;;;;;15.23;99.76;98463.64;1663732;84;21039;-70
2021/05/18 06:03:51;;;;;;;16.48;13.62;;;;;;;15.23;99.77;98460.93;1663560;86;21009;-67
2021/05/18 06:06:17;;;;;;;11.88;10.75;;;;;;;15.23;99.78;98460.93;1663266;86;21723;-68
2021/05/18 06:08:46;;;;;;;12.85;11.70;;;;;;;15.30;100.00;98462.63;1671800;84;20971;-68
2021/05/18 06:11:23;;;;;;;11.48;10.30;;;;;;;15.34;99.80;98466.34;1691327;84;20932;-70
2021/05/18 06:14:59;;;;;;;14.28;12.70;;;;;;;15.35;99.85;98458.43;1690506;84;21043;-70
2021/05/18 06:16:59;;;;;;;14.03;10.78;;;;;;;15.37;99.74;98458.94;1653240;84;21070;-69
2021/05/18 06:36:51;;;;;;;14.75;13.30;;;;;;;15.74;100.00;98436.00;1664147;84;21519;-68
2021/05/18 06:48:30;;;;;;;29.60;25.27;;;;;;;16.03;99.65;98432.17;1684336;84;21576;-70
2021/05/18 06:50:58;;;;;;;35.85;20.02;;;;;;;16.04;99.22;98432.98;1683254;84;20960;-69
2021/05/18 06:53:25;;;;;;;29.80;17.85;;;;;;;16.09;99.24;98428.76;1659110;85;21575;-68
2021/05/18 06:55:53;;;;;;;25.82;16.87;;;;;;;16.19;99.40;98431.73;1678495;84;21054;-68
2021/05/18 07:01:08;;;;;;;19.23;13.08;;;;;;;16.33;98.79;98424.24;1637386;85;20951;-69
2021/05/18 07:03:53;;;;;;;28.77;18.20;;;;;;;16.42;98.35;98425.05;1656788;86;21035;-67
2021/05/18 07:11:13;;;;;;;16.95;13.78;;;;;;;16.59;97.50;98433.23;1639714;85;20983;-69
2021/05/18 07:13:41;;;;;;;14.45;11.97;;;;;;;16.63;96.70;98428.76;1658651;85;20959;-68
2021/05/18 07:16:08;;;;;;;17.87;15.10;;;;;;;16.67;96.31;98435.70;1635613;86;20951;-69
2021/05/18 07:18:35;;;;;;;15.23;13.78;;;;;;;16.69;95.90;98434.83;1656882;86;21054;-68
2021/05/18 07:21:02;;;;;;;15.85;14.33;;;;;;;16.69;95.42;98435.60;1647756;86;21118;-69
2021/05/18 07:23:29;;;;;;;15.90;12.95;;;;;;;16.66;95.53;98439.52;1657149;86;22043;-68
2021/05/18 07:25:55;;;;;;;15.38;13.88;;;;;;;16.66;95.76;98437.61;1646160;85;21563;-68
2021/05/18 07:28:24;;;;;;;14.20;12.80;;;;;;;16.60;95.68;98436.72;1655493;85;21050;-69
2021/05/18 07:30:51;;;;;;;16.95;13.10;;;;;;;16.49;96.60;98446.53;1657284;85;21098;-68
2021/05/18 07:33:17;;;;;;;32.38;17.23;;;;;;;16.40;96.99;98446.29;1661499;85;21067;-68
2021/05/18 07:35:45;;;;;;;17.77;15.63;;;;;;;16.34;97.82;98450.27;1630484;87;21475;-67
2021/05/18 07:38:12;;;;;;;14.18;12.88;;;;;;;16.25;98.52;98448.91;1652797;84;21569;-69
2021/05/18 07:40:39;;;;;;;13.35;12.03;;;;;;;16.26;99.32;98440.98;1667134;84;21064;-68
2021/05/18 07:43:05;;;;;;;15.32;13.83;;;;;;;16.27;99.71;98443.94;1678830;84;21627;-69
2021/05/18 07:45:33;;;;;;;16.37;14.78;;;;;;;16.27;100.00;98440.42;1663350;86;20941;-68
2021/05/18 07:48:12;;;;;;;15.10;11.63;;;;;;;16.29;100.00;98443.63;1651013;85;21732;-69
2021/05/18 07:50:45;;;;;;;18.32;15.80;;;;;;;16.26;100.00;98445.05;1632225;86;21047;-70
2021/05/18 08:02:21;;;;;;;23.57;16.35;;;;;;;16.16;100.00;98444.02;1637777;84;21135;-69
2021/05/18 08:06:34;;;;;;;30.72;20.45;;;;;;;16.08;100.00;98444.78;1691366;84;21061;-70
2021/05/18 08:09:03;;;;;;;15.50;13.60;;;;;;;16.01;100.00;98450.69;1663489;84;20984;-69
2021/05/18 08:11:30;;;;;;;15.08;13.50;;;;;;;16.05;100.00;98456.27;1625052;87;21078;-68
2021/05/18 08:13:58;;;;;;;37.70;24.20;;;;;;;16.04;100.00;98452.77;1649819;85;21075;-69
2021/05/18 08:16:51;;;;;;;34.20;20.62;;;;;;;16.01;100.00;98443.11;1636513;86;21237;-69
2021/05/18 10:36:32;;;;;;;5.20;1.67;;;;;;;19.40;73.68;98297.33;1671605;85;21646;-73
2021/05/18 10:39:23;;;;;;;3.05;1.70;;;;;;;19.51;71.24;98282.14;1670695;85;21033;-73
2021/05/18 10:41:50;;;;;;;5.28;2.58;;;;;;;19.63;71.99;98297.67;1643749;85;20958;-71
2021/05/18 10:44:17;;;;;;;4.03;2.02;;;;;;;19.79;72.01;98299.37;1642885;87;21062;-71
2021/05/18 10:46:57;;;;;;;3.40;1.72;;;;;;;19.93;70.67;98309.91;1642473;87;21048;-73
2021/05/18 10:49:37;;;;;;;1.95;1.85;;;;;;;20.07;71.42;98313.62;1657391;85;21013;-70
2021/05/18 10:52:09;;;;;;;2.83;2.05;;;;;;;20.18;68.72;98315.53;1622349;87;21672;-73
2021/05/18 10:54:42;;;;;;;6.90;2.15;;;;;;;20.24;69.87;98305.94;1661778;85;21020;-70
2021/05/18 10:57:19;;;;;;;3.05;2.85;;;;;;;20.30;69.73;98293.66;1670212;85;21186;-73
2021/05/18 10:59:54;;;;;;;4.20;2.40;;;;;;;20.40;68.84;98287.70;1669301;85;21001;-70
2021/05/18 11:02:39;;;;;;;2.20;1.90;;;;;;;20.48;69.28;98276.98;1617604;87;21025;-70
2021/05/18 11:05:14;;;;;;;2.65;1.60;;;;;;;20.50;67.56;98271.95;1617716;87;21573;-75
2021/05/18 11:07:44;;;;;;;2.58;1.90;;;;;;;20.56;67.59;98271.93;1642258;85;21075;-76
2021/05/18 11:10:16;;;;;;;11.25;2.58;;;;;;;20.73;67.32;98269.66;1626000;85;21103;-75
2021/05/18 11:12:48;;;;;;;;;;;;;;;20.86;66.81;98273.89;1667110;85;21006;-77
2021/05/18 11:15:24;;;;;;;4.75;2.05;;;;;;;20.95;68.08;98275.11;1642561;86;20260;-73
2021/05/18 11:17:53;;;;;;;6.03;2.52;;;;;;;20.76;66.89;98292.77;1642509;85;21155;-77
2021/05/18 11:26:08;;;;;;;3.67;2.33;;;;;;;20.45;69.39;98300.31;1625416;87;21701;-79
2021/05/18 11:28:43;;;;;;;2.17;2.08;;;;;;;20.29;70.02;98293.41;1650260;85;21014;-88
2021/05/18 11:31:23;;;;;;;8.68;2.60;;;;;;;20.16;69.81;98285.61;1671269;85;21006;-80
2021/05/18 11:33:56;;;;;;;8.05;3.92;;;;;;;20.05;70.36;98276.34;1667867;85;20946;-78
2021/05/18 11:36:26;;;;;;;3.50;3.20;;;;;;;19.97;70.84;98273.96;1668671;85;21160;-79
2021/05/18 11:39:02;;;;;;;3.30;2.95;;;;;;;19.93;71.24;98266.25;1636768;86;20979;-74
2021/05/18 11:41:36;;;;;;;10.50;3.08;;;;;;;19.80;72.13;98254.58;1623033;87;21012;-78
2021/05/18 11:44:05;;;;;;;6.97;2.80;;;;;;;19.80;72.13;98254.58;1624622;87;21125;-76
2021/05/18 11:46:33;;;;;;;9.55;3.65;;;;;;;19.80;72.08;98251.06;1620913;86;21049;-78
2021/05/18 11:49:07;;;;;;;6.05;4.33;;;;;;;19.77;72.16;98251.16;1613778;87;21714;-83
2021/05/18 11:51:52;;;;;;;5.72;3.52;;;;;;;19.81;72.01;98251.26;1617191;88;21004;-76
2021/05/18 11:54:24;;;;;;;7.03;3.58;;;;;;;19.84;71.90;98247.86;1616944;88;21620;-77
2021/05/18 11:56:52;;;;;;;9.55;4.95;;;;;;;19.84;71.90;98247.86;1616846;88;21068;-76
2021/05/18 11:59:21;;;;;;;8.25;3.37;;;;;;;19.83;72.22;98238.88;1616804;88;21104;-75
2021/05/18 12:02:00;;;;;;;9.70;4.45;;;;;;;19.83;72.26;98238.08;1613089;88;21641;-76
2021/05/18 12:04:29;;;;;;;6.75;3.05;;;;;;;19.76;73.80;98245.48;1626382;87;21622;-76
2021/05/18 12:07:05;;;;;;;7.72;3.27;;;;;;;19.44;78.48;98254.64;1637280;86;20986;-75
2021/05/18 12:09:36;;;;;;;8.38;4.67;;;;;;;19.44;78.48;98254.64;1616870;88;21021;-78
2021/05/18 12:12:07;;;;;;;4.65;3.10;;;;;;;19.25;81.12;98250.31;1635471;87;21101;-86
2021/05/18 12:14:46;;;;;;;10.68;4.65;;;;;;;19.25;81.12;98250.31;1642946;87;21097;-78
2021/05/18 12:17:31;;;;;;;7.65;4.15;;;;;;;19.20;82.27;98259.51;1618639;87;21017;-83
2021/05/18 12:20:00;;;;;;;5.87;3.75;;;;;;;19.17;83.42;98260.20;1616937;88;21613;-85
2021/05/18 12:22:26;;;;;;;9.35;4.20;;;;;;;19.13;84.00;98264.19;1616095;87;21021;-82
2021/05/18 12:24:55;;;;;;;5.83;4.20;;;;;;;19.04;84.84;98259.39;1638211;86;21648;-83
2021/05/18 12:27:22;;;;;;;9.88;5.00;;;;;;;19.02;85.74;98253.50;1612664;87;21574;-83
2021/05/18 12:29:54;;;;;;;6.50;5.85;;;;;;;18.97;85.82;98244.75;1635574;87;20974;-88
2021/05/18 12:32:33;;;;;;;6.67;5.22;;;;;;;18.94;86.08;98254.98;1612818;87;21063;-82
2021/05/18 12:35:07;;;;;;;10.08;4.05;;;;;;;18.89;85.91;98248.39;1611969;88;21785;-85
2021/05/18 12:37:43;;;;;;;17.90;7.03;;;;;;;18.87;85.74;98250.64;1591924;90;21626;-82
2021/05/18 12:40:32;;;;;;;13.13;8.80;;;;;;;18.80;85.73;98249.83;1608605;88;21104;-84
2021/05/18 12:43:12;;;;;;;17.92;7.78;;;;;;;18.76;87.80;98255.73;1632300;86;21554;-81
2021/05/18 12:45:39;;;;;;;24.15;7.67;;;;;;;18.69;88.28;98251.42;1662153;85;21104;-88
2021/05/18 12:48:08;;;;;;;11.12;7.20;;;;;;;18.73;88.51;98256.42;1663047;85;20979;-80
2021/05/18 12:50:47;;;;;;;9.80;7.50;;;;;;;18.76;89.13;98250.28;1668791;85;21576;-84
2021/05/18 12:53:31;;;;;;;12.65;10.53;;;;;;;18.81;89.86;98258.80;1658448;86;21077;-84
2021/05/18 12:55:59;;;;;;;9.00;6.35;;;;;;;18.85;90.20;98263.83;1658276;86;21584;-74
2021/05/18 12:58:34;;;;;;;4.78;4.37;;;;;;;18.75;88.23;98273.80;1629717;87;20999;-82
2021/05/18 13:01:12;;;;;;;9.03;4.40;;;;;;;18.55;88.09;98283.62;1676422;85;21055;-81
2021/05/18 13:03:41;;;;;;;5.92;3.75;;;;;;;18.38;88.08;98281.02;1666328;85;20984;-76
2021/05/18 13:06:07;;;;;;;6.92;5.00;;;;;;;18.29;87.81;98279.74;1622915;87;21115;-75
2021/05/18 13:08:38;;;;;;;6.08;5.35;;;;;;;18.34;87.97;98282.26;1645888;86;21090;-75
2021/05/18 13:13:56;;;;;;;9.20;6.15;;;;;;;18.36;87.27;98294.98;1658214;86;21077;-78
2021/05/18 13:16:34;;;;;;;7.75;4.95;;;;;;;18.27;88.03;98281.44;1680582;85;21019;-81
2021/05/18 13:19:06;;;;;;;9.25;5.83;;;;;;;18.21;88.33;98281.99;1681373;85;21498;-82
2021/05/18 13:21:50;;;;;;;6.12;5.35;;;;;;;18.18;88.88;98282.64;1672605;85;20987;-80
2021/05/18 13:26:25;;;;;;;5.95;4.80;;;;;;;18.16;89.03;98287.08;1645989;86;21024;-80
2021/05/18 13:26:51;;;;;;;5.55;4.90;;;;;;;18.19;89.24;98291.04;1682898;85;21032;-81
2021/05/18 13:29:19;;;;;;;12.03;5.10;;;;;;;18.17;89.10;98300.92;1688759;85;20983;-80
2021/05/18 13:31:49;;;;;;;6.58;5.28;;;;;;;18.07;89.77;98299.16;1688174;85;21354;-82
2021/05/18 13:34:15;;;;;;;8.73;5.42;;;;;;;17.96;90.67;98314.28;1664475;85;21026;-80
2021/05/18 13:36:45;;;;;;;7.80;4.65;;;;;;;17.83;91.27;98328.38;1685650;85;21409;-90
2021/05/18 13:39:17;;;;;;;6.58;3.87;;;;;;;17.68;91.03;98327.03;1660916;85;20932;-86
2021/05/18 13:41:44;;;;;;;8.03;5.80;;;;;;;17.56;91.51;98334.26;1675006;85;21039;-85
2021/05/18 13:44:17;;;;;;;5.70;3.95;;;;;;;17.47;91.55;98316.64;1674627;85;21844;-84
2021/05/18 13:46:44;;;;;;;4.15;3.30;;;;;;;17.34;91.14;98301.37;1655579;85;20997;-83
2021/05/18 13:49:13;;;;;;;8.03;3.20;;;;;;;17.19;91.28;98281.55;1628857;85;21085;-72
2021/05/18 13:51:42;;;;;;;6.47;3.65;;;;;;;17.07;89.01;98267.88;1658903;85;21071;-73
2021/05/18 13:54:09;;;;;;;5.00;2.77;;;;;;;16.89;89.93;98261.14;1675862;85;20989;-76
2021/05/18 13:56:35;;;;;;;5.37;3.52;;;;;;;16.82;90.81;98265.50;1660119;85;21467;-73
2021/05/18 13:59:02;;;;;;;6.78;4.85;;;;;;;16.77;91.38;98270.55;1646879;87;21335;-77
2021/05/18 14:01:29;;;;;;;9.15;4.17;;;;;;;16.78;91.51;98253.70;1648604;87;21081;-77
2021/05/18 14:03:56;;;;;;;4.28;3.80;;;;;;;16.74;92.01;98249.45;1649116;85;21109;-74
2021/05/18 14:06:23;;;;;;;5.25;3.90;;;;;;;16.77;92.23;98245.31;1658068;85;21636;-72
2021/05/18 14:08:50;;;;;;;3.22;2.87;;;;;;;16.79;91.62;98257.42;1675891;85;21370;-70
2021/05/18 14:11:19;;;;;;;5.60;4.60;;;;;;;16.84;92.39;98257.25;1675887;85;21073;-75
2021/05/18 14:13:49;;;;;;;5.62;3.87;;;;;;;16.85;92.64;98258.05;1676079;85;20977;-73
2021/05/18 14:16:21;;;;;;;9.15;3.98;;;;;;;16.84;92.74;98246.39;1651448;85;21593;-78
2021/05/18 14:18:53;;;;;;;7.28;4.83;;;;;;;16.95;93.03;98244.91;1676173;85;21538;-77
2021/05/18 14:21:23;;;;;;;5.70;3.90;;;;;;;17.12;92.99;98253.52;1676090;85;21087;-71
2021/05/18 14:26:18;;;;;;;10.80;4.85;;;;;;;17.26;91.01;98248.68;1663572;85;21003;-75
2021/05/18 14:28:46;;;;;;;5.75;5.17;;;;;;;17.25;90.67;98245.72;1651178;85;21068;-78
2021/05/18 14:31:13;;;;;;;8.28;5.45;;;;;;;17.24;90.53;98246.04;1651114;85;21086;-75
2021/05/18 14:33:42;;;;;;;10.45;7.10;;;;;;;17.23;91.44;98243.88;1651191;85;21150;-74
2021/05/18 14:36:10;;;;;;;8.75;7.15;;;;;;;17.25;92.57;98239.48;1673398;85;21074;-75
2021/05/18 14:38:39;;;;;;;9.88;6.03;;;;;;;17.22;93.04;98234.13;1676008;85;20970;-75
2021/05/18 14:42:50;;;;;;;8.95;7.83;;;;;;;17.22;93.28;98237.41;1663147;85;21075;-72
2021/05/18 14:46:22;;;;;;;9.00;6.13;;;;;;;17.22;93.15;98245.56;1651439;86;21602;-72
2021/05/18 14:56:40;;;;;;;9.60;7.62;;;;;;;17.58;93.82;98235.51;1651116;86;21045;-75
2021/05/18 14:59:07;;;;;;;16.67;12.00;;;;;;;17.60;93.37;98234.07;1662805;86;21854;-83
2021/05/18 15:01:33;;;;;;;14.50;10.70;;;;;;;17.67;94.10;98232.98;1649212;86;21025;-78
2021/05/18 15:04:00;;;;;;;15.28;10.78;;;;;;;17.73;93.96;98233.03;1657882;86;21159;-72
2021/05/18 15:06:27;;;;;;;8.98;6.65;;;;;;;17.77;94.40;98238.59;1650116;86;21593;-72
2021/05/18 15:08:53;;;;;;;10.28;5.97;;;;;;;17.85;94.35;98230.36;1638991;87;21092;-71
2021/05/18 15:11:20;;;;;;;5.40;4.65;;;;;;;17.95;93.79;98232.44;1648030;86;21100;-83
2021/05/18 15:13:48;;;;;;;4.33;3.47;;;;;;;17.98;91.57;98233.15;1648658;86;21036;-81
2021/05/18 15:16:14;;;;;;;3.17;2.92;;;;;;;17.98;88.21;98231.79;1650800;86;21116;-76
2021/05/18 15:18:43;;;;;;;5.03;3.08;;;;;;;17.95;85.43;98228.36;1650365;86;21096;-76
2021/05/18 15:21:11;;;;;;;5.60;4.50;;;;;;;17.93;85.50;98225.99;1636963;86;21013;-75
2021/05/18 15:23:40;;;;;;;3.95;3.55;;;;;;;17.92;85.61;98233.11;1625597;87;21088;-75
2021/05/18 15:26:06;;;;;;;8.30;4.47;;;;;;;17.90;86.43;98238.88;1647192;86;20969;-81
2021/05/18 15:28:33;;;;;;;6.50;3.85;;;;;;;17.86;87.14;98237.95;1642197;86;20989;-74
2021/05/18 15:30:59;;;;;;;6.08;3.85;;;;;;;17.83;87.79;98229.11;1647137;86;21569;-77
2021/05/18 15:33:26;;;;;;;7.17;5.87;;;;;;;17.81;88.48;98228.64;1636817;86;21070;-72
2021/05/18 15:35:54;;;;;;;10.68;5.45;;;;;;;17.83;89.02;98227.75;1637774;86;20999;-77
2021/05/18 15:38:22;;;;;;;6.78;4.53;;;;;;;17.85;88.96;98222.20;1642087;85;21724;-74
2021/05/18 15:40:49;;;;;;;10.03;5.53;;;;;;;17.81;88.67;98219.91;1636733;85;21045;-72
2021/05/18 15:43:15;;;;;;;8.43;5.92;;;;;;;17.78;89.19;98221.95;1630864;85;21141;-75
2021/05/18 15:45:41;;;;;;;7.78;4.67;;;;;;;17.75;89.52;98215.80;1665363;85;21120;-72
2021/05/18 15:48:10;;;;;;;5.58;3.80;;;;;;;17.69;89.13;98207.64;1653146;85;21843;-80
2021/05/18 15:50:36;;;;;;;14.80;8.25;;;;;;;17.63;88.94;98206.23;1650215;85;21637;-74
2021/05/18 15:53:03;;;;;;;11.85;6.25;;;;;;;17.52;89.08;98205.56;1665354;85;21021;-73
2021/05/18 15:55:30;;;;;;;12.68;7.72;;;;;;;17.45;89.59;98200.67;1664425;85;21148;-75
2021/05/18 15:57:57;;;;;;;8.35;6.42;;;;;;;17.47;89.56;98199.77;1671446;85;21130;-73
2021/05/18 16:00:23;;;;;;;14.20;6.90;;;;;;;17.60;89.84;98196.59;1671726;85;21687;-74
2021/05/18 16:02:50;;;;;;;20.08;9.63;;;;;;;17.67;86.78;98190.05;1648468;87;21048;-74
2021/05/18 16:05:18;;;;;;;13.93;5.70;;;;;;;17.76;85.26;98190.20;1649471;85;21584;-75
2021/05/18 16:07:51;;;;;;;7.75;5.92;;;;;;;17.88;83.26;98185.95;1660269;85;21546;-73
2021/05/18 16:10:13;;;;;;;4.47;3.92;;;;;;;18.01;80.98;98191.10;1625485;87;21021;-75
2021/05/18 16:12:39;;;;;;;4.53;4.05;;;;;;;18.18;80.08;98180.03;1651094;85;21068;-74
2021/05/18 16:15:09;;;;;;;5.50;3.25;;;;;;;18.34;78.04;98176.11;1655346;85;21005;-73
2021/05/18 16:17:38;;;;;;;10.85;4.00;;;;;;;18.44;78.09;98170.23;1645918;85;21664;-76
2021/05/18 16:20:08;;;;;;;3.42;2.62;;;;;;;18.56;76.14;98172.98;1649304;85;21037;-78
2021/05/18 16:22:35;;;;;;;31.15;5.22;;;;;;;18.65;75.99;98179.14;1652336;85;20989;-79
2021/05/18 16:25:01;;;;;;;9.05;5.35;;;;;;;18.70;77.27;98182.97;1672894;85;21144;-80
2021/05/18 16:27:28;;;;;;;8.58;4.35;;;;;;;18.65;77.65;98188.67;1676059;85;21218;-81
2021/05/18 16:29:54;;;;;;;9.50;5.05;;;;;;;18.60;77.37;98188.09;1675643;85;21069;-81
2021/05/18 16:32:20;;;;;;;17.00;4.50;;;;;;;18.50;77.57;98183.86;1635708;85;21085;-81
2021/05/18 16:34:47;;;;;;;9.33;3.77;;;;;;;18.45;78.31;98177.83;1650992;85;21084;-78
2021/05/18 16:37:14;;;;;;;6.92;4.05;;;;;;;18.38;78.31;98182.45;1660768;85;21108;-74
2021/05/18 16:39:40;;;;;;;5.67;3.67;;;;;;;18.41;78.91;98174.20;1649999;85;21111;-75
2021/05/18 16:42:09;;;;;;;7.55;3.90;;;;;;;18.40;78.84;98171.24;1648368;86;21626;-75
2021/05/18 16:44:35;;;;;;;4.97;3.83;;;;;;;18.38;79.38;98168.84;1644041;85;21033;-74